sensor_id;sensor_type;location;lat;lon;timestamp;P1;durP1;ratioP1;P2;durP2;ratioP2
25213;SDS011;13160;51.834;4.706;2023-07-30T00:01:50;8.52;;;2.65;;
25213;SDS011;13160;51.834;4.706;2023-07-30T00:04:20;12.65;;;3.28;;
25213;SDS011;13160;51.834;4.706;2023-07-30T00:06:49;8.82;;;2.67;;
25213;SDS011;13160;51.834;4.706;2023-07-30T00:09:18;10.45;;;2.70;;
25213;SDS011;13160;51.834;4.706;2023-07-30T00:11:46;17.05;;;3.53;;
25213;SDS011;13160;51.834;4.706;2023-07-30T00:14:14;12.98;;;2.97;;
25213;SDS011;13160;51.834;4.706;2023-07-30T00:16:42;14.48;;;3.63;;
25213;SDS011;13160;51.834;4.706;2023-07-30T00:19:10;12.93;;;3.40;;
25213;SDS011;13160;51.834;4.706;2023-07-30T00:21:40;14.80;;;3.33;;
25213;SDS011;13160;51.834;4.706;2023-07-30T00:24:12;11.45;;;3.30;;
25213;SDS011;13160;51.834;4.706;2023-07-30T00:26:40;14.60;;;3.33;;
25213;SDS011;13160;51.834;4.706;2023-07-30T00:29:09;16.30;;;3.65;;
25213;SDS011;13160;51.834;4.706;2023-07-30T00:31:37;12.70;;;3.40;;
25213;SDS011;13160;51.834;4.706;2023-07-30T00:34:06;14.88;;;3.58;;
25213;SDS011;13160;51.834;4.706;2023-07-30T00:36:35;11.57;;;3.03;;
25213;SDS011;13160;51.834;4.706;2023-07-30T00:39:04;13.15;;;3.38;;
25213;SDS011;13160;51.834;4.706;2023-07-30T00:41:33;14.50;;;3.90;;
25213;SDS011;13160;51.834;4.706;2023-07-30T00:44:01;11.75;;;3.00;;
25213;SDS011;13160;51.834;4.706;2023-07-30T00:46:30;12.00;;;3.58;;
25213;SDS011;13160;51.834;4.706;2023-07-30T00:48:59;16.75;;;3.78;;
25213;SDS011;13160;51.834;4.706;2023-07-30T00:51:27;11.75;;;3.67;;
25213;SDS011;13160;51.834;4.706;2023-07-30T00:53:59;14.07;;;3.45;;
25213;SDS011;13160;51.834;4.706;2023-07-30T00:56:29;16.58;;;3.50;;
25213;SDS011;13160;51.834;4.706;2023-07-30T00:58:58;13.77;;;3.13;;
25213;SDS011;13160;51.834;4.706;2023-07-30T01:01:27;13.63;;;4.10;;
25213;SDS011;13160;51.834;4.706;2023-07-30T01:03:56;17.02;;;3.75;;
25213;SDS011;13160;51.834;4.706;2023-07-30T01:06:25;15.75;;;3.97;;
25213;SDS011;13160;51.834;4.706;2023-07-30T01:08:53;14.93;;;3.63;;
25213;SDS011;13160;51.834;4.706;2023-07-30T01:11:21;11.45;;;3.38;;
25213;SDS011;13160;51.834;4.706;2023-07-30T01:13:51;17.52;;;3.60;;
25213;SDS011;13160;51.834;4.706;2023-07-30T01:16:21;13.52;;;3.28;;
25213;SDS011;13160;51.834;4.706;2023-07-30T01:18:50;18.13;;;3.47;;
25213;SDS011;13160;51.834;4.706;2023-07-30T01:21:20;18.63;;;4.38;;
25213;SDS011;13160;51.834;4.706;2023-07-30T01:23:48;17.52;;;3.85;;
25213;SDS011;13160;51.834;4.706;2023-07-30T01:26:19;13.93;;;3.60;;
25213;SDS011;13160;51.834;4.706;2023-07-30T01:28:54;15.98;;;3.55;;
25213;SDS011;13160;51.834;4.706;2023-07-30T01:31:26;19.95;;;3.92;;
25213;SDS011;13160;51.834;4.706;2023-07-30T01:33:54;15.43;;;3.97;;
25213;SDS011;13160;51.834;4.706;2023-07-30T01:36:26;17.83;;;4.68;;
25213;SDS011;13160;51.834;4.706;2023-07-30T01:38:56;18.33;;;4.40;;
25213;SDS011;13160;51.834;4.706;2023-07-30T01:41:25;18.08;;;4.22;;
25213;SDS011;13160;51.834;4.706;2023-07-30T01:43:54;13.52;;;3.50;;
25213;SDS011;13160;51.834;4.706;2023-07-30T01:46:22;20.63;;;4.60;;
25213;SDS011;13160;51.834;4.706;2023-07-30T01:48:51;19.02;;;4.63;;
25213;SDS011;13160;51.834;4.706;2023-07-30T01:51:19;22.75;;;4.80;;
25213;SDS011;13160;51.834;4.706;2023-07-30T01:53:49;21.88;;;4.50;;
25213;SDS011;13160;51.834;4.706;2023-07-30T01:56:18;22.52;;;5.03;;
25213;SDS011;13160;51.834;4.706;2023-07-30T01:58:46;19.10;;;4.43;;
25213;SDS011;13160;51.834;4.706;2023-07-30T02:01:15;24.58;;;4.68;;
25213;SDS011;13160;51.834;4.706;2023-07-30T02:03:44;29.75;;;5.10;;
25213;SDS011;13160;51.834;4.706;2023-07-30T02:06:12;20.33;;;5.22;;
25213;SDS011;13160;51.834;4.706;2023-07-30T02:08:41;19.23;;;5.20;;
25213;SDS011;13160;51.834;4.706;2023-07-30T02:11:10;20.55;;;4.93;;
25213;SDS011;13160;51.834;4.706;2023-07-30T02:13:38;22.42;;;4.60;;
25213;SDS011;13160;51.834;4.706;2023-07-30T02:16:07;16.52;;;4.88;;
25213;SDS011;13160;51.834;4.706;2023-07-30T02:18:36;23.13;;;5.18;;
25213;SDS011;13160;51.834;4.706;2023-07-30T02:21:04;18.50;;;5.40;;
25213;SDS011;13160;51.834;4.706;2023-07-30T02:23:32;24.00;;;5.97;;
25213;SDS011;13160;51.834;4.706;2023-07-30T02:26:01;21.65;;;6.38;;
25213;SDS011;13160;51.834;4.706;2023-07-30T02:28:31;29.30;;;5.47;;
25213;SDS011;13160;51.834;4.706;2023-07-30T02:30:59;21.45;;;5.28;;
25213;SDS011;13160;51.834;4.706;2023-07-30T02:33:27;24.38;;;5.90;;
25213;SDS011;13160;51.834;4.706;2023-07-30T02:35:56;27.48;;;5.65;;
25213;SDS011;13160;51.834;4.706;2023-07-30T02:38:24;26.88;;;5.68;;
25213;SDS011;13160;51.834;4.706;2023-07-30T02:40:52;24.50;;;6.18;;
25213;SDS011;13160;51.834;4.706;2023-07-30T02:43:21;25.60;;;6.03;;
25213;SDS011;13160;51.834;4.706;2023-07-30T02:45:50;24.10;;;5.93;;
25213;SDS011;13160;51.834;4.706;2023-07-30T02:48:19;23.73;;;6.13;;
25213;SDS011;13160;51.834;4.706;2023-07-30T02:50:47;21.80;;;5.28;;
25213;SDS011;13160;51.834;4.706;2023-07-30T02:53:15;18.92;;;5.78;;
25213;SDS011;13160;51.834;4.706;2023-07-30T02:55:44;23.25;;;5.97;;
25213;SDS011;13160;51.834;4.706;2023-07-30T02:58:12;24.83;;;5.72;;
25213;SDS011;13160;51.834;4.706;2023-07-30T03:00:40;24.85;;;5.47;;
25213;SDS011;13160;51.834;4.706;2023-07-30T03:03:10;25.02;;;6.10;;
25213;SDS011;13160;51.834;4.706;2023-07-30T03:05:41;31.98;;;7.07;;
25213;SDS011;13160;51.834;4.706;2023-07-30T03:08:09;33.25;;;6.60;;
25213;SDS011;13160;51.834;4.706;2023-07-30T03:10:38;21.35;;;5.25;;
25213;SDS011;13160;51.834;4.706;2023-07-30T03:13:07;22.83;;;5.82;;
25213;SDS011;13160;51.834;4.706;2023-07-30T03:15:35;21.67;;;6.43;;
25213;SDS011;13160;51.834;4.706;2023-07-30T03:18:03;29.83;;;6.45;;
25213;SDS011;13160;51.834;4.706;2023-07-30T03:20:33;27.88;;;7.13;;
25213;SDS011;13160;51.834;4.706;2023-07-30T03:23:01;28.65;;;6.35;;
25213;SDS011;13160;51.834;4.706;2023-07-30T03:25:30;38.40;;;7.45;;
25213;SDS011;13160;51.834;4.706;2023-07-30T03:27:58;33.42;;;7.20;;
25213;SDS011;13160;51.834;4.706;2023-07-30T03:30:27;26.48;;;7.68;;
25213;SDS011;13160;51.834;4.706;2023-07-30T03:32:55;29.27;;;6.85;;
25213;SDS011;13160;51.834;4.706;2023-07-30T03:35:23;36.92;;;7.15;;
25213;SDS011;13160;51.834;4.706;2023-07-30T03:37:53;30.63;;;7.18;;
25213;SDS011;13160;51.834;4.706;2023-07-30T03:40:22;30.45;;;6.88;;
25213;SDS011;13160;51.834;4.706;2023-07-30T03:42:50;28.88;;;7.32;;
25213;SDS011;13160;51.834;4.706;2023-07-30T03:45:19;30.25;;;7.78;;
25213;SDS011;13160;51.834;4.706;2023-07-30T03:47:48;27.02;;;7.35;;
25213;SDS011;13160;51.834;4.706;2023-07-30T03:50:16;36.13;;;8.13;;
25213;SDS011;13160;51.834;4.706;2023-07-30T03:52:45;33.53;;;7.75;;
25213;SDS011;13160;51.834;4.706;2023-07-30T03:55:15;30.55;;;8.48;;
25213;SDS011;13160;51.834;4.706;2023-07-30T03:57:43;34.47;;;8.88;;
25213;SDS011;13160;51.834;4.706;2023-07-30T04:00:11;36.45;;;7.75;;
25213;SDS011;13160;51.834;4.706;2023-07-30T04:02:40;31.88;;;9.00;;
25213;SDS011;13160;51.834;4.706;2023-07-30T04:05:08;30.77;;;7.72;;
25213;SDS011;13160;51.834;4.706;2023-07-30T04:07:37;26.80;;;8.02;;
25213;SDS011;13160;51.834;4.706;2023-07-30T04:10:06;35.05;;;9.45;;
25213;SDS011;13160;51.834;4.706;2023-07-30T04:12:37;30.00;;;7.30;;
25213;SDS011;13160;51.834;4.706;2023-07-30T04:15:06;33.05;;;7.07;;
25213;SDS011;13160;51.834;4.706;2023-07-30T04:17:36;32.00;;;8.02;;
25213;SDS011;13160;51.834;4.706;2023-07-30T04:20:05;34.50;;;8.07;;
25213;SDS011;13160;51.834;4.706;2023-07-30T04:22:35;30.42;;;7.13;;
25213;SDS011;13160;51.834;4.706;2023-07-30T04:25:04;36.13;;;8.30;;
25213;SDS011;13160;51.834;4.706;2023-07-30T04:27:33;34.08;;;7.70;;
25213;SDS011;13160;51.834;4.706;2023-07-30T04:30:04;35.45;;;7.70;;
25213;SDS011;13160;51.834;4.706;2023-07-30T04:32:33;32.80;;;7.60;;
25213;SDS011;13160;51.834;4.706;2023-07-30T04:35:02;29.33;;;8.35;;
25213;SDS011;13160;51.834;4.706;2023-07-30T04:37:31;31.45;;;6.43;;
25213;SDS011;13160;51.834;4.706;2023-07-30T04:40:00;30.05;;;7.03;;
25213;SDS011;13160;51.834;4.706;2023-07-30T04:42:29;26.33;;;7.25;;
25213;SDS011;13160;51.834;4.706;2023-07-30T04:44:57;31.73;;;7.53;;
25213;SDS011;13160;51.834;4.706;2023-07-30T04:47:28;31.58;;;8.27;;
25213;SDS011;13160;51.834;4.706;2023-07-30T04:49:56;36.95;;;8.38;;
25213;SDS011;13160;51.834;4.706;2023-07-30T04:52:25;31.77;;;8.20;;
25213;SDS011;13160;51.834;4.706;2023-07-30T04:54:53;29.95;;;7.55;;
25213;SDS011;13160;51.834;4.706;2023-07-30T04:57:21;30.42;;;7.93;;
25213;SDS011;13160;51.834;4.706;2023-07-30T04:59:50;26.15;;;8.25;;
25213;SDS011;13160;51.834;4.706;2023-07-30T05:02:18;31.23;;;7.45;;
25213;SDS011;13160;51.834;4.706;2023-07-30T05:04:48;34.65;;;8.38;;
25213;SDS011;13160;51.834;4.706;2023-07-30T05:07:17;30.83;;;8.07;;
25213;SDS011;13160;51.834;4.706;2023-07-30T05:09:45;39.47;;;8.90;;
25213;SDS011;13160;51.834;4.706;2023-07-30T05:12:14;29.13;;;8.40;;
25213;SDS011;13160;51.834;4.706;2023-07-30T05:14:42;34.88;;;9.13;;
25213;SDS011;13160;51.834;4.706;2023-07-30T05:17:10;25.15;;;7.22;;
25213;SDS011;13160;51.834;4.706;2023-07-30T05:19:39;32.35;;;8.02;;
25213;SDS011;13160;51.834;4.706;2023-07-30T05:22:08;37.50;;;7.72;;
25213;SDS011;13160;51.834;4.706;2023-07-30T05:24:37;39.50;;;8.35;;
25213;SDS011;13160;51.834;4.706;2023-07-30T05:27:05;26.23;;;7.30;;
25213;SDS011;13160;51.834;4.706;2023-07-30T05:29:34;28.08;;;7.32;;
25213;SDS011;13160;51.834;4.706;2023-07-30T05:32:02;31.25;;;8.07;;
25213;SDS011;13160;51.834;4.706;2023-07-30T05:34:32;23.42;;;6.95;;
25213;SDS011;13160;51.834;4.706;2023-07-30T05:37:01;34.00;;;6.68;;
25213;SDS011;13160;51.834;4.706;2023-07-30T05:39:31;28.30;;;8.38;;
25213;SDS011;13160;51.834;4.706;2023-07-30T05:42:00;34.63;;;6.57;;
25213;SDS011;13160;51.834;4.706;2023-07-30T05:44:28;31.63;;;6.90;;
25213;SDS011;13160;51.834;4.706;2023-07-30T05:46:56;26.70;;;6.05;;
25213;SDS011;13160;51.834;4.706;2023-07-30T05:49:25;29.20;;;6.80;;
25213;SDS011;13160;51.834;4.706;2023-07-30T05:51:53;38.00;;;7.15;;
25213;SDS011;13160;51.834;4.706;2023-07-30T05:54:21;28.30;;;6.00;;
25213;SDS011;13160;51.834;4.706;2023-07-30T05:56:51;25.88;;;6.65;;
25213;SDS011;13160;51.834;4.706;2023-07-30T05:59:19;25.48;;;5.72;;
25213;SDS011;13160;51.834;4.706;2023-07-30T06:01:49;29.88;;;5.63;;
25213;SDS011;13160;51.834;4.706;2023-07-30T06:04:17;25.08;;;6.22;;
25213;SDS011;13160;51.834;4.706;2023-07-30T06:06:45;22.65;;;5.47;;
25213;SDS011;13160;51.834;4.706;2023-07-30T06:09:14;28.70;;;5.28;;
25213;SDS011;13160;51.834;4.706;2023-07-30T06:11:42;33.58;;;5.97;;
25213;SDS011;13160;51.834;4.706;2023-07-30T06:14:12;31.95;;;5.13;;
25213;SDS011;13160;51.834;4.706;2023-07-30T06:16:40;28.25;;;5.60;;
25213;SDS011;13160;51.834;4.706;2023-07-30T06:19:10;26.63;;;5.43;;
25213;SDS011;13160;51.834;4.706;2023-07-30T06:21:39;29.13;;;5.32;;
25213;SDS011;13160;51.834;4.706;2023-07-30T06:24:07;22.17;;;4.85;;
25213;SDS011;13160;51.834;4.706;2023-07-30T06:26:36;21.75;;;4.68;;
25213;SDS011;13160;51.834;4.706;2023-07-30T06:29:04;20.90;;;4.75;;
25213;SDS011;13160;51.834;4.706;2023-07-30T06:31:34;27.38;;;5.07;;
25213;SDS011;13160;51.834;4.706;2023-07-30T06:34:03;28.73;;;5.45;;
25213;SDS011;13160;51.834;4.706;2023-07-30T06:36:32;27.55;;;5.30;;
25213;SDS011;13160;51.834;4.706;2023-07-30T06:39:01;28.30;;;5.60;;
25213;SDS011;13160;51.834;4.706;2023-07-30T06:41:29;24.77;;;5.43;;
25213;SDS011;13160;51.834;4.706;2023-07-30T06:43:58;26.58;;;6.00;;
25213;SDS011;13160;51.834;4.706;2023-07-30T06:46:26;24.40;;;5.88;;
25213;SDS011;13160;51.834;4.706;2023-07-30T06:48:56;29.75;;;6.07;;
25213;SDS011;13160;51.834;4.706;2023-07-30T06:51:25;30.27;;;6.60;;
25213;SDS011;13160;51.834;4.706;2023-07-30T06:53:54;26.60;;;5.22;;
25213;SDS011;13160;51.834;4.706;2023-07-30T06:56:22;26.95;;;6.20;;
25213;SDS011;13160;51.834;4.706;2023-07-30T06:58:51;33.17;;;6.57;;
25213;SDS011;13160;51.834;4.706;2023-07-30T07:01:19;32.05;;;7.68;;
25213;SDS011;13160;51.834;4.706;2023-07-30T07:03:47;27.90;;;6.60;;
25213;SDS011;13160;51.834;4.706;2023-07-30T07:06:17;31.42;;;6.07;;
25213;SDS011;13160;51.834;4.706;2023-07-30T07:08:46;28.70;;;6.53;;
25213;SDS011;13160;51.834;4.706;2023-07-30T07:11:14;29.92;;;6.70;;
25213;SDS011;13160;51.834;4.706;2023-07-30T07:13:42;26.35;;;6.05;;
25213;SDS011;13160;51.834;4.706;2023-07-30T07:16:11;29.88;;;7.65;;
25213;SDS011;13160;51.834;4.706;2023-07-30T07:18:39;26.30;;;5.80;;
25213;SDS011;13160;51.834;4.706;2023-07-30T07:21:08;30.20;;;6.07;;
25213;SDS011;13160;51.834;4.706;2023-07-30T07:23:39;28.92;;;6.95;;
25213;SDS011;13160;51.834;4.706;2023-07-30T07:26:07;21.63;;;5.05;;
25213;SDS011;13160;51.834;4.706;2023-07-30T07:28:35;27.02;;;5.15;;
25213;SDS011;13160;51.834;4.706;2023-07-30T07:31:04;22.83;;;5.07;;
25213;SDS011;13160;51.834;4.706;2023-07-30T07:33:32;27.42;;;5.05;;
25213;SDS011;13160;51.834;4.706;2023-07-30T07:36:04;17.63;;;4.90;;
25213;SDS011;13160;51.834;4.706;2023-07-30T07:38:34;30.05;;;5.82;;
25213;SDS011;13160;51.834;4.706;2023-07-30T07:41:04;20.17;;;4.90;;
25213;SDS011;13160;51.834;4.706;2023-07-30T07:43:33;18.73;;;4.93;;
25213;SDS011;13160;51.834;4.706;2023-07-30T07:46:01;22.77;;;5.40;;
25213;SDS011;13160;51.834;4.706;2023-07-30T07:48:29;24.85;;;5.60;;
25213;SDS011;13160;51.834;4.706;2023-07-30T07:50:58;24.80;;;5.38;;
25213;SDS011;13160;51.834;4.706;2023-07-30T07:53:26;18.92;;;5.75;;
25213;SDS011;13160;51.834;4.706;2023-07-30T07:55:55;23.02;;;5.97;;
25213;SDS011;13160;51.834;4.706;2023-07-30T07:58:25;18.98;;;5.55;;
25213;SDS011;13160;51.834;4.706;2023-07-30T08:00:54;24.25;;;5.20;;
25213;SDS011;13160;51.834;4.706;2023-07-30T08:03:23;22.45;;;5.60;;
25213;SDS011;13160;51.834;4.706;2023-07-30T08:05:53;26.63;;;5.20;;
25213;SDS011;13160;51.834;4.706;2023-07-30T08:08:21;27.98;;;5.95;;
25213;SDS011;13160;51.834;4.706;2023-07-30T08:10:53;22.02;;;5.97;;
25213;SDS011;13160;51.834;4.706;2023-07-30T08:13:22;25.42;;;5.53;;
25213;SDS011;13160;51.834;4.706;2023-07-30T08:15:51;22.52;;;5.10;;
25213;SDS011;13160;51.834;4.706;2023-07-30T08:18:20;22.20;;;6.13;;
25213;SDS011;13160;51.834;4.706;2023-07-30T08:20:55;21.63;;;5.15;;
25213;SDS011;13160;51.834;4.706;2023-07-30T08:23:24;18.77;;;5.13;;
25213;SDS011;13160;51.834;4.706;2023-07-30T08:25:54;24.85;;;4.97;;
25213;SDS011;13160;51.834;4.706;2023-07-30T08:28:26;23.35;;;5.25;;
25213;SDS011;13160;51.834;4.706;2023-07-30T08:31:01;18.75;;;4.82;;
25213;SDS011;13160;51.834;4.706;2023-07-30T08:33:31;21.77;;;4.90;;
25213;SDS011;13160;51.834;4.706;2023-07-30T08:36:04;19.60;;;4.97;;
25213;SDS011;13160;51.834;4.706;2023-07-30T08:38:37;18.58;;;4.18;;
25213;SDS011;13160;51.834;4.706;2023-07-30T08:41:06;24.00;;;5.05;;
25213;SDS011;13160;51.834;4.706;2023-07-30T08:43:35;20.38;;;4.47;;
25213;SDS011;13160;51.834;4.706;2023-07-30T08:46:05;22.42;;;5.50;;
25213;SDS011;13160;51.834;4.706;2023-07-30T08:48:34;21.23;;;4.70;;
25213;SDS011;13160;51.834;4.706;2023-07-30T08:51:02;16.77;;;4.18;;
25213;SDS011;13160;51.834;4.706;2023-07-30T08:53:31;16.58;;;3.80;;
25213;SDS011;13160;51.834;4.706;2023-07-30T08:56:03;16.02;;;3.78;;
25213;SDS011;13160;51.834;4.706;2023-07-30T08:58:33;19.85;;;3.95;;
25213;SDS011;13160;51.834;4.706;2023-07-30T09:01:08;15.02;;;3.65;;
25213;SDS011;13160;51.834;4.706;2023-07-30T09:03:39;19.20;;;4.80;;
25213;SDS011;13160;51.834;4.706;2023-07-30T09:06:08;16.33;;;4.10;;
25213;SDS011;13160;51.834;4.706;2023-07-30T09:08:36;19.77;;;3.80;;
25213;SDS011;13160;51.834;4.706;2023-07-30T09:11:08;18.27;;;3.80;;
25213;SDS011;13160;51.834;4.706;2023-07-30T09:13:37;15.80;;;3.78;;
25213;SDS011;13160;51.834;4.706;2023-07-30T09:16:11;16.40;;;3.95;;
25213;SDS011;13160;51.834;4.706;2023-07-30T09:18:41;13.52;;;3.42;;
25213;SDS011;13160;51.834;4.706;2023-07-30T09:21:15;16.85;;;4.65;;
25213;SDS011;13160;51.834;4.706;2023-07-30T09:23:45;17.50;;;3.55;;
25213;SDS011;13160;51.834;4.706;2023-07-30T09:26:19;11.32;;;3.05;;
25213;SDS011;13160;51.834;4.706;2023-07-30T09:28:48;17.67;;;3.38;;
25213;SDS011;13160;51.834;4.706;2023-07-30T09:31:21;15.80;;;2.90;;
25213;SDS011;13160;51.834;4.706;2023-07-30T09:33:50;16.13;;;3.25;;
25213;SDS011;13160;51.834;4.706;2023-07-30T09:36:18;12.07;;;2.50;;
25213;SDS011;13160;51.834;4.706;2023-07-30T09:38:48;14.18;;;2.60;;
25213;SDS011;13160;51.834;4.706;2023-07-30T09:41:23;11.43;;;2.20;;
25213;SDS011;13160;51.834;4.706;2023-07-30T09:43:57;10.30;;;2.10;;
25213;SDS011;13160;51.834;4.706;2023-07-30T09:46:32;9.93;;;2.40;;
25213;SDS011;13160;51.834;4.706;2023-07-30T09:49:31;6.72;;;1.90;;
25213;SDS011;13160;51.834;4.706;2023-07-30T09:52:00;10.43;;;1.95;;
25213;SDS011;13160;51.834;4.706;2023-07-30T09:54:29;9.38;;;2.33;;
25213;SDS011;13160;51.834;4.706;2023-07-30T09:56:59;13.38;;;2.30;;
25213;SDS011;13160;51.834;4.706;2023-07-30T09:59:44;15.00;;;2.83;;
25213;SDS011;13160;51.834;4.706;2023-07-30T10:02:14;14.23;;;2.35;;
25213;SDS011;13160;51.834;4.706;2023-07-30T10:04:47;8.48;;;1.85;;
25213;SDS011;13160;51.834;4.706;2023-07-30T10:07:22;10.88;;;2.40;;
25213;SDS011;13160;51.834;4.706;2023-07-30T10:09:54;13.10;;;1.98;;
25213;SDS011;13160;51.834;4.706;2023-07-30T10:12:27;11.32;;;2.13;;
25213;SDS011;13160;51.834;4.706;2023-07-30T10:15:00;11.27;;;2.40;;
25213;SDS011;13160;51.834;4.706;2023-07-30T10:17:30;10.25;;;2.10;;
25213;SDS011;13160;51.834;4.706;2023-07-30T10:22:52;10.93;;;2.22;;
25213;SDS011;13160;51.834;4.706;2023-07-30T10:25:21;9.95;;;2.70;;
25213;SDS011;13160;51.834;4.706;2023-07-30T10:27:55;9.43;;;2.35;;
25213;SDS011;13160;51.834;4.706;2023-07-30T10:30:29;11.40;;;2.20;;
25213;SDS011;13160;51.834;4.706;2023-07-30T10:33:03;11.20;;;2.65;;
25213;SDS011;13160;51.834;4.706;2023-07-30T10:35:38;10.40;;;2.20;;
25213;SDS011;13160;51.834;4.706;2023-07-30T10:38:12;10.48;;;2.38;;
25213;SDS011;13160;51.834;4.706;2023-07-30T10:40:42;8.88;;;2.13;;
25213;SDS011;13160;51.834;4.706;2023-07-30T10:43:28;8.88;;;1.85;;
25213;SDS011;13160;51.834;4.706;2023-07-30T10:45:58;9.95;;;2.30;;
25213;SDS011;13160;51.834;4.706;2023-07-30T10:48:31;9.40;;;1.80;;
25213;SDS011;13160;51.834;4.706;2023-07-30T10:51:02;8.10;;;2.42;;
25213;SDS011;13160;51.834;4.706;2023-07-30T10:53:33;6.57;;;2.15;;
25213;SDS011;13160;51.834;4.706;2023-07-30T10:56:03;8.68;;;1.60;;
25213;SDS011;13160;51.834;4.706;2023-07-30T10:58:33;10.32;;;2.08;;
25213;SDS011;13160;51.834;4.706;2023-07-30T11:01:03;9.95;;;1.98;;
25213;SDS011;13160;51.834;4.706;2023-07-30T11:03:34;11.25;;;2.10;;
25213;SDS011;13160;51.834;4.706;2023-07-30T11:06:04;10.93;;;1.95;;
25213;SDS011;13160;51.834;4.706;2023-07-30T11:08:35;13.73;;;2.25;;
25213;SDS011;13160;51.834;4.706;2023-07-30T11:11:05;6.93;;;1.73;;
25213;SDS011;13160;51.834;4.706;2023-07-30T11:13:35;9.77;;;2.00;;
25213;SDS011;13160;51.834;4.706;2023-07-30T11:16:04;11.23;;;2.17;;
25213;SDS011;13160;51.834;4.706;2023-07-30T11:18:35;12.05;;;2.38;;
25213;SDS011;13160;51.834;4.706;2023-07-30T11:21:05;9.70;;;2.20;;
25213;SDS011;13160;51.834;4.706;2023-07-30T11:23:36;8.07;;;1.63;;
25213;SDS011;13160;51.834;4.706;2023-07-30T11:26:08;6.97;;;1.60;;
25213;SDS011;13160;51.834;4.706;2023-07-30T11:28:41;9.50;;;2.25;;
25213;SDS011;13160;51.834;4.706;2023-07-30T11:31:10;10.18;;;1.67;;
25213;SDS011;13160;51.834;4.706;2023-07-30T11:33:41;13.57;;;2.15;;
25213;SDS011;13160;51.834;4.706;2023-07-30T11:36:12;9.68;;;1.95;;
25213;SDS011;13160;51.834;4.706;2023-07-30T11:38:42;8.98;;;2.00;;
25213;SDS011;13160;51.834;4.706;2023-07-30T11:41:13;6.65;;;1.92;;
25213;SDS011;13160;51.834;4.706;2023-07-30T11:43:43;11.93;;;3.17;;
25213;SDS011;13160;51.834;4.706;2023-07-30T11:46:13;8.98;;;1.95;;
25213;SDS011;13160;51.834;4.706;2023-07-30T11:48:51;7.32;;;1.80;;
25213;SDS011;13160;51.834;4.706;2023-07-30T11:51:22;7.00;;;2.05;;
25213;SDS011;13160;51.834;4.706;2023-07-30T11:53:53;7.47;;;1.83;;
25213;SDS011;13160;51.834;4.706;2023-07-30T11:56:24;9.43;;;2.00;;
25213;SDS011;13160;51.834;4.706;2023-07-30T11:58:54;9.30;;;2.00;;
25213;SDS011;13160;51.834;4.706;2023-07-30T12:01:25;7.55;;;2.15;;
25213;SDS011;13160;51.834;4.706;2023-07-30T12:03:58;10.63;;;2.25;;
25213;SDS011;13160;51.834;4.706;2023-07-30T12:06:38;9.90;;;2.33;;
25213;SDS011;13160;51.834;4.706;2023-07-30T12:09:11;7.78;;;1.88;;
25213;SDS011;13160;51.834;4.706;2023-07-30T12:11:44;10.93;;;1.80;;
25213;SDS011;13160;51.834;4.706;2023-07-30T12:14:17;7.47;;;1.98;;
25213;SDS011;13160;51.834;4.706;2023-07-30T12:16:47;7.80;;;1.88;;
25213;SDS011;13160;51.834;4.706;2023-07-30T12:19:17;5.57;;;1.67;;
25213;SDS011;13160;51.834;4.706;2023-07-30T12:21:47;8.93;;;2.05;;
25213;SDS011;13160;51.834;4.706;2023-07-30T12:24:16;7.03;;;1.70;;
25213;SDS011;13160;51.834;4.706;2023-07-30T12:26:44;10.77;;;1.90;;
25213;SDS011;13160;51.834;4.706;2023-07-30T12:29:12;8.15;;;1.92;;
25213;SDS011;13160;51.834;4.706;2023-07-30T12:31:41;8.32;;;2.35;;
25213;SDS011;13160;51.834;4.706;2023-07-30T12:34:10;6.95;;;1.80;;
25213;SDS011;13160;51.834;4.706;2023-07-30T12:36:39;6.28;;;1.70;;
25213;SDS011;13160;51.834;4.706;2023-07-30T12:39:08;8.07;;;1.75;;
25213;SDS011;13160;51.834;4.706;2023-07-30T12:41:38;6.43;;;1.80;;
25213;SDS011;13160;51.834;4.706;2023-07-30T12:44:07;5.80;;;1.98;;
25213;SDS011;13160;51.834;4.706;2023-07-30T12:46:37;7.28;;;1.88;;
25213;SDS011;13160;51.834;4.706;2023-07-30T12:49:05;9.88;;;2.30;;
25213;SDS011;13160;51.834;4.706;2023-07-30T12:51:33;7.57;;;1.70;;
25213;SDS011;13160;51.834;4.706;2023-07-30T12:54:04;7.93;;;2.00;;
25213;SDS011;13160;51.834;4.706;2023-07-30T12:56:32;6.72;;;1.73;;
25213;SDS011;13160;51.834;4.706;2023-07-30T12:59:03;5.97;;;1.55;;
25213;SDS011;13160;51.834;4.706;2023-07-30T13:01:31;6.25;;;1.65;;
25213;SDS011;13160;51.834;4.706;2023-07-30T13:04:00;7.30;;;1.50;;
25213;SDS011;13160;51.834;4.706;2023-07-30T13:06:28;5.78;;;1.85;;
25213;SDS011;13160;51.834;4.706;2023-07-30T13:08:56;6.10;;;1.50;;
25213;SDS011;13160;51.834;4.706;2023-07-30T13:11:26;10.15;;;1.92;;
25213;SDS011;13160;51.834;4.706;2023-07-30T13:13:56;7.13;;;1.70;;
25213;SDS011;13160;51.834;4.706;2023-07-30T13:16:28;6.65;;;2.28;;
25213;SDS011;13160;51.834;4.706;2023-07-30T13:18:57;8.73;;;2.03;;
25213;SDS011;13160;51.834;4.706;2023-07-30T13:21:26;8.15;;;1.67;;
25213;SDS011;13160;51.834;4.706;2023-07-30T13:23:54;7.43;;;2.03;;
25213;SDS011;13160;51.834;4.706;2023-07-30T13:26:22;8.52;;;1.80;;
25213;SDS011;13160;51.834;4.706;2023-07-30T13:28:52;7.43;;;1.83;;
25213;SDS011;13160;51.834;4.706;2023-07-30T13:31:21;9.07;;;1.80;;
25213;SDS011;13160;51.834;4.706;2023-07-30T13:33:52;8.70;;;2.20;;
25213;SDS011;13160;51.834;4.706;2023-07-30T13:36:20;8.30;;;2.05;;
25213;SDS011;13160;51.834;4.706;2023-07-30T13:38:49;8.63;;;2.30;;
25213;SDS011;13160;51.834;4.706;2023-07-30T13:41:18;10.63;;;2.80;;
25213;SDS011;13160;51.834;4.706;2023-07-30T13:43:46;11.98;;;2.70;;
25213;SDS011;13160;51.834;4.706;2023-07-30T13:46:16;10.10;;;2.22;;
25213;SDS011;13160;51.834;4.706;2023-07-30T13:48:45;9.30;;;2.22;;
25213;SDS011;13160;51.834;4.706;2023-07-30T13:51:13;12.38;;;2.85;;
25213;SDS011;13160;51.834;4.706;2023-07-30T13:53:46;12.10;;;2.70;;
25213;SDS011;13160;51.834;4.706;2023-07-30T13:56:14;10.98;;;2.53;;
25213;SDS011;13160;51.834;4.706;2023-07-30T13:58:43;11.05;;;2.90;;
25213;SDS011;13160;51.834;4.706;2023-07-30T14:01:17;11.43;;;2.60;;
25213;SDS011;13160;51.834;4.706;2023-07-30T14:03:45;11.85;;;2.95;;
25213;SDS011;13160;51.834;4.706;2023-07-30T14:06:15;12.63;;;3.25;;
25213;SDS011;13160;51.834;4.706;2023-07-30T14:08:44;12.63;;;3.45;;
25213;SDS011;13160;51.834;4.706;2023-07-30T14:11:12;10.63;;;2.67;;
25213;SDS011;13160;51.834;4.706;2023-07-30T14:13:50;10.52;;;2.75;;
25213;SDS011;13160;51.834;4.706;2023-07-30T14:16:32;11.45;;;2.63;;
25213;SDS011;13160;51.834;4.706;2023-07-30T14:19:01;10.05;;;3.00;;
25213;SDS011;13160;51.834;4.706;2023-07-30T14:21:36;11.45;;;2.90;;
25213;SDS011;13160;51.834;4.706;2023-07-30T14:24:06;13.60;;;3.13;;
25213;SDS011;13160;51.834;4.706;2023-07-30T14:26:35;9.48;;;2.83;;
25213;SDS011;13160;51.834;4.706;2023-07-30T14:29:03;8.90;;;2.50;;
25213;SDS011;13160;51.834;4.706;2023-07-30T14:31:33;10.48;;;3.00;;
25213;SDS011;13160;51.834;4.706;2023-07-30T14:34:05;10.00;;;3.08;;
25213;SDS011;13160;51.834;4.706;2023-07-30T14:36:34;13.45;;;3.30;;
25213;SDS011;13160;51.834;4.706;2023-07-30T14:39:03;13.82;;;3.67;;
25213;SDS011;13160;51.834;4.706;2023-07-30T14:41:31;14.95;;;3.80;;
25213;SDS011;13160;51.834;4.706;2023-07-30T14:44:00;11.52;;;3.40;;
25213;SDS011;13160;51.834;4.706;2023-07-30T14:46:28;13.45;;;3.28;;
25213;SDS011;13160;51.834;4.706;2023-07-30T14:48:59;10.20;;;3.28;;
25213;SDS011;13160;51.834;4.706;2023-07-30T14:51:28;10.55;;;3.42;;
25213;SDS011;13160;51.834;4.706;2023-07-30T14:53:56;12.45;;;3.03;;
25213;SDS011;13160;51.834;4.706;2023-07-30T14:56:25;9.82;;;3.22;;